createdAt,value
2022-11-14T00:00:10.917Z,883
2022-11-14T00:02:11.059Z,716
2022-11-14T00:03:10.990Z,839
2022-11-14T00:04:10.863Z,887
2022-11-14T00:05:10.859Z,795
2022-11-14T00:07:11.092Z,892
2022-11-14T00:08:10.852Z,728
2022-11-14T00:09:10.921Z,728
2022-11-14T00:10:10.852Z,761
2022-11-14T00:12:11.074Z,819
2022-11-14T00:13:10.911Z,852
2022-11-14T00:14:10.873Z,731
2022-11-14T00:15:10.923Z,867
2022-11-14T00:17:11.082Z,679
2022-11-14T00:18:10.922Z,738
2022-11-14T00:19:10.886Z,902
2022-11-14T00:20:10.895Z,744
2022-11-14T00:22:11.060Z,848
2022-11-14T00:23:10.862Z,889
2022-11-14T00:24:10.928Z,880
2022-11-14T00:25:10.931Z,764
2022-11-14T00:27:11.070Z,867
2022-11-14T00:28:10.923Z,721
2022-11-14T00:29:10.927Z,864
2022-11-14T00:30:10.921Z,867
2022-11-14T00:32:11.068Z,721
2022-11-14T00:33:12.763Z,676
2022-11-14T00:34:10.868Z,718
2022-11-14T00:35:10.872Z,700
2022-11-14T00:37:11.066Z,711
2022-11-14T00:38:10.878Z,720
2022-11-14T00:39:10.862Z,874
2022-11-14T00:40:10.931Z,731
2022-11-14T00:42:11.075Z,721
2022-11-14T00:43:10.881Z,838
2022-11-14T00:44:10.901Z,870
2022-11-14T00:45:10.927Z,733
2022-11-14T00:47:11.041Z,873
2022-11-14T00:48:10.869Z,838
2022-11-14T00:49:10.941Z,839
2022-11-14T00:50:10.868Z,799
2022-11-14T00:52:11.083Z,817
2022-11-14T00:53:10.869Z,817
2022-11-14T00:54:10.883Z,828
2022-11-14T00:55:10.934Z,664
2022-11-14T00:57:11.073Z,689
2022-11-14T00:58:10.947Z,867
2022-11-14T00:59:10.914Z,701
2022-11-14T01:00:10.881Z,698
2022-11-14T01:02:11.075Z,700
2022-11-14T01:03:10.877Z,674
2022-11-14T01:04:10.886Z,839
2022-11-14T01:05:10.939Z,718
2022-11-14T01:07:11.090Z,674
2022-11-14T01:08:10.883Z,825
2022-11-14T01:09:10.989Z,845
2022-11-14T01:10:10.882Z,799
2022-11-14T01:12:11.087Z,825
2022-11-14T01:13:10.892Z,727
2022-11-14T01:14:10.946Z,886
2022-11-14T01:15:10.945Z,873
2022-11-14T01:17:11.063Z,871
2022-11-14T01:18:10.886Z,871
2022-11-14T01:19:10.952Z,873
2022-11-14T01:20:10.943Z,871
2022-11-14T01:22:11.107Z,867
2022-11-14T01:23:10.970Z,634
2022-11-14T01:24:10.902Z,803
2022-11-14T01:25:10.895Z,799
2022-11-14T01:27:11.145Z,683
2022-11-14T01:28:10.952Z,855
2022-11-14T01:29:10.897Z,855
2022-11-14T01:30:10.915Z,848
2022-11-14T01:32:11.094Z,695
2022-11-14T01:33:10.954Z,843
2022-11-14T01:34:10.966Z,843
2022-11-14T01:35:10.961Z,808
2022-11-14T01:37:11.080Z,690
2022-11-14T01:38:10.887Z,830
2022-11-14T01:39:10.955Z,794
2022-11-14T01:40:10.889Z,679
2022-11-14T01:42:11.101Z,562
2022-11-14T01:43:10.889Z,714
2022-11-14T01:44:10.915Z,713
2022-11-14T01:45:10.892Z,705
2022-11-14T01:47:11.071Z,803
2022-11-14T01:48:10.956Z,721
2022-11-14T01:49:10.969Z,879
2022-11-14T01:50:10.897Z,857
2022-11-14T01:52:11.091Z,701
2022-11-14T01:53:10.925Z,838
2022-11-14T01:54:10.906Z,692
2022-11-14T01:55:10.893Z,852
2022-11-14T01:57:11.097Z,842
2022-11-14T01:58:10.983Z,675
2022-11-14T01:59:10.897Z,698
2022-11-14T02:00:10.926Z,718
2022-11-14T02:02:11.104Z,735
2022-11-14T02:03:10.967Z,713
2022-11-14T02:04:15.060Z,695
2022-11-14T02:05:10.968Z,701
2022-11-14T02:07:11.240Z,591
2022-11-14T02:08:10.910Z,843
2022-11-14T02:09:10.925Z,834
2022-11-14T02:10:10.896Z,672
2022-11-14T02:12:11.113Z,727
2022-11-14T02:13:10.980Z,772
2022-11-14T02:14:10.961Z,586
2022-11-14T02:15:10.962Z,836
2022-11-14T02:17:29.868Z,706
2022-11-14T02:18:10.941Z,877
2022-11-14T02:19:10.967Z,839
2022-11-14T02:20:10.912Z,665
2022-11-14T02:22:11.122Z,808
2022-11-14T02:23:10.921Z,692
2022-11-14T02:24:10.911Z,838
2022-11-14T02:25:10.927Z,695
2022-11-14T02:27:11.109Z,852
2022-11-14T02:28:10.911Z,689
2022-11-14T02:29:10.939Z,836
2022-11-14T02:30:10.920Z,667
2022-11-14T02:32:11.226Z,834
2022-11-14T02:33:11.658Z,713
2022-11-14T02:34:10.920Z,871
2022-11-14T02:35:10.978Z,710
2022-11-14T02:37:11.142Z,682
2022-11-14T02:38:10.940Z,673
2022-11-14T02:39:10.917Z,794
2022-11-14T02:40:10.986Z,794
2022-11-14T02:42:11.155Z,657
2022-11-14T02:43:10.981Z,706
2022-11-14T02:44:10.910Z,848
2022-11-14T02:45:10.980Z,681
2022-11-14T02:47:11.110Z,699
2022-11-14T02:48:10.987Z,827
2022-11-14T02:49:10.937Z,825
2022-11-14T02:50:10.918Z,839
2022-11-14T02:52:11.118Z,714
2022-11-14T02:53:10.948Z,812
2022-11-14T02:54:10.933Z,830
2022-11-14T02:55:10.949Z,814
2022-11-14T02:57:11.118Z,853
2022-11-14T02:58:10.981Z,640
2022-11-14T02:59:10.997Z,763
2022-11-14T03:00:14.763Z,645
2022-11-14T03:16:22.364Z,626
2022-11-14T03:21:22.375Z,646
2022-11-14T03:36:22.362Z,503
2022-11-14T03:56:22.379Z,617
2022-11-14T04:01:22.369Z,475
2022-11-14T04:06:22.373Z,487
2022-11-14T04:11:22.362Z,645
2022-11-14T04:16:22.375Z,699
2022-11-14T04:21:22.373Z,706
2022-11-14T04:26:22.386Z,592
2022-11-14T04:31:22.373Z,690
2022-11-14T04:36:22.396Z,574
2022-11-14T04:41:22.380Z,539
2022-11-14T04:46:22.395Z,700
2022-11-14T04:51:22.401Z,473
2022-11-14T04:56:22.368Z,659
2022-11-14T05:01:22.428Z,699
2022-11-14T05:06:22.373Z,726
2022-11-14T05:11:26.648Z,668
2022-11-14T05:16:22.389Z,545
2022-11-14T05:21:22.390Z,564
2022-11-14T05:26:22.387Z,500
2022-11-14T05:31:22.394Z,542
2022-11-14T05:36:22.400Z,708
2022-11-14T05:41:22.399Z,719
2022-11-14T05:46:22.425Z,574
2022-11-14T05:51:22.423Z,708
2022-11-14T05:56:22.422Z,732
2022-11-14T06:01:22.413Z,588
2022-11-14T06:06:22.433Z,529
2022-11-14T06:11:22.439Z,596
2022-11-14T06:16:22.405Z,945
2022-11-14T06:21:22.427Z,774
2022-11-14T06:26:22.411Z,596
2022-11-14T06:31:22.412Z,586
2022-11-14T06:36:22.419Z,602
2022-11-14T06:41:22.419Z,821
2022-11-14T06:46:22.460Z,752
2022-11-14T06:51:22.456Z,690
2022-11-14T06:56:22.434Z,566
2022-11-14T07:01:22.443Z,754
2022-11-14T07:06:22.458Z,596
2022-11-14T07:11:22.440Z,819
2022-11-14T07:16:22.428Z,810
2022-11-14T07:21:22.431Z,543
2022-11-14T07:26:22.462Z,813
2022-11-14T07:31:22.436Z,589
2022-11-14T07:36:22.444Z,761
2022-11-14T07:41:22.446Z,800
2022-11-14T07:46:22.449Z,617
2022-11-14T07:51:22.475Z,715
2022-11-14T07:56:22.453Z,813
2022-11-14T08:01:22.567Z,514
2022-11-14T08:06:22.451Z,615
2022-11-14T08:11:34.471Z,536
2022-11-14T08:16:22.462Z,656
2022-11-14T08:21:22.459Z,567
2022-11-14T08:26:22.467Z,666
2022-11-14T08:31:22.468Z,657
2022-11-14T08:36:22.465Z,650
2022-11-14T08:41:22.491Z,704
2022-11-14T08:46:22.483Z,740
2022-11-14T08:51:22.491Z,548
2022-11-14T08:56:22.496Z,555
2022-11-14T09:01:22.505Z,770
2022-11-14T09:06:22.493Z,744
2022-11-14T09:11:22.506Z,802
2022-11-14T09:15:22.393Z,806
2022-11-14T09:16:22.495Z,618
2022-11-14T09:21:22.486Z,759
2022-11-14T09:26:22.485Z,712
2022-11-14T09:31:22.477Z,649
2022-11-14T09:36:22.515Z,774
2022-11-14T09:41:22.494Z,708
2022-11-14T09:46:22.500Z,776
2022-11-14T09:51:22.502Z,697
2022-11-14T09:56:22.521Z,694
2022-11-14T10:01:22.519Z,542
2022-11-14T10:06:22.519Z,690
2022-11-14T10:07:22.601Z,530
2022-11-14T10:11:22.498Z,690
2022-11-14T10:16:22.519Z,645
2022-11-14T10:21:22.544Z,749
2022-11-14T10:26:22.535Z,710
2022-11-14T10:31:22.500Z,686
2022-11-14T10:34:22.368Z,666
2022-11-14T10:36:22.527Z,486
2022-11-14T10:38:22.365Z,473
2022-11-14T10:41:42.126Z,475
2022-11-14T10:46:22.551Z,566
2022-11-14T10:51:22.544Z,495
2022-11-14T10:56:22.528Z,534
2022-11-14T11:01:22.581Z,508
2022-11-14T11:06:22.523Z,646
2022-11-14T11:09:22.383Z,591
2022-11-14T11:11:22.581Z,460
2022-11-14T11:12:22.412Z,465
2022-11-14T11:13:22.362Z,623
2022-11-14T11:15:22.367Z,577
2022-11-14T11:16:22.537Z,476
2022-11-14T11:18:22.389Z,463
2022-11-14T11:21:22.587Z,607
2022-11-14T11:26:22.526Z,451
2022-11-14T11:27:22.367Z,465
2022-11-14T11:28:22.365Z,460
2022-11-14T11:31:22.562Z,575
2022-11-14T11:33:22.372Z,406
2022-11-14T11:36:22.542Z,441
2022-11-14T11:39:22.373Z,570
2022-11-14T11:41:52.960Z,441
2022-11-14T11:42:22.371Z,612
2022-11-14T11:43:39.155Z,472
2022-11-14T11:44:22.371Z,475
2022-11-14T11:45:22.383Z,456
2022-11-14T11:46:22.541Z,461
2022-11-14T11:49:22.376Z,581
2022-11-14T11:50:22.382Z,421
2022-11-14T11:51:22.546Z,580
2022-11-14T11:53:22.386Z,477
2022-11-14T11:54:22.376Z,597
2022-11-14T11:55:22.370Z,602
2022-11-14T11:56:22.546Z,478
2022-11-14T11:57:22.389Z,457
2022-11-14T11:58:22.372Z,457
2022-11-14T11:59:22.381Z,596
2022-11-14T12:00:22.374Z,596
2022-11-14T12:01:22.562Z,446
2022-11-14T12:02:22.528Z,575
2022-11-14T12:03:22.419Z,447
2022-11-14T12:04:22.390Z,447
2022-11-14T12:05:22.368Z,564
2022-11-14T12:06:22.554Z,589
2022-11-14T12:07:22.379Z,617
2022-11-14T12:08:22.378Z,618
2022-11-14T12:09:22.420Z,472
2022-11-14T12:10:22.375Z,627
2022-11-14T12:11:22.554Z,612
2022-11-14T12:12:22.380Z,478
2022-11-14T12:13:22.392Z,588
2022-11-14T12:15:22.395Z,463
2022-11-14T12:16:22.568Z,615
2022-11-14T12:17:22.401Z,615
2022-11-14T12:18:22.360Z,620
2022-11-14T12:19:22.385Z,633
2022-11-14T12:20:22.387Z,497
2022-11-14T12:21:22.580Z,657
2022-11-14T12:22:22.386Z,612
2022-11-14T12:23:22.371Z,627
2022-11-14T12:25:22.389Z,599
2022-11-14T12:26:22.593Z,480
2022-11-14T12:27:22.420Z,591
2022-11-14T12:28:22.369Z,596
2022-11-14T12:29:25.153Z,433
2022-11-14T12:30:22.365Z,612
2022-11-14T12:31:22.603Z,465
2022-11-14T12:32:22.364Z,450
2022-11-14T12:33:22.392Z,444
2022-11-14T12:35:22.471Z,472
2022-11-14T12:36:22.590Z,566
2022-11-14T12:37:22.426Z,800
2022-11-14T12:38:22.387Z,645
2022-11-14T12:39:22.412Z,645
2022-11-14T12:40:22.394Z,626
2022-11-14T12:41:22.594Z,633
2022-11-14T12:42:22.367Z,614
2022-11-14T12:43:22.399Z,611
2022-11-14T12:44:22.425Z,624
2022-11-14T12:45:22.393Z,477
2022-11-14T12:46:22.571Z,624
2022-11-14T12:47:22.396Z,726
2022-11-14T12:48:22.398Z,561
2022-11-14T12:49:22.369Z,702
2022-11-14T12:50:22.368Z,714
2022-11-14T12:51:22.640Z,710
2022-11-14T12:52:22.421Z,514
2022-11-14T12:53:22.403Z,519
2022-11-14T12:54:22.399Z,514
2022-11-14T12:55:22.377Z,665
2022-11-14T12:56:22.576Z,631
2022-11-14T12:57:22.403Z,690
2022-11-14T12:58:22.418Z,697
2022-11-14T12:59:22.376Z,686
2022-11-14T13:00:22.400Z,545
2022-11-14T13:01:22.682Z,542
2022-11-14T13:02:22.733Z,497
2022-11-14T13:03:22.404Z,643
2022-11-14T13:04:22.397Z,600
2022-11-14T13:05:22.452Z,650
2022-11-14T13:06:22.601Z,514
2022-11-14T13:07:22.497Z,447
2022-11-14T13:08:22.398Z,699
2022-11-14T13:09:22.389Z,717
2022-11-14T13:10:22.400Z,553
2022-11-14T13:11:22.582Z,560
2022-11-14T13:12:22.374Z,700
2022-11-14T13:13:22.382Z,694
2022-11-14T13:14:22.399Z,546
2022-11-14T13:15:22.404Z,560
2022-11-14T13:16:22.581Z,462
2022-11-14T13:17:22.394Z,660
2022-11-14T13:18:22.399Z,502
2022-11-14T13:19:22.423Z,637
2022-11-14T13:20:22.418Z,633
2022-11-14T13:21:22.581Z,497
2022-11-14T13:22:22.403Z,688
2022-11-14T13:23:22.429Z,566
2022-11-14T13:24:22.406Z,534
2022-11-14T13:25:22.414Z,545
2022-11-14T13:26:22.594Z,560
2022-11-14T13:27:30.474Z,776
2022-11-14T13:28:25.049Z,780
2022-11-14T13:29:22.410Z,768
2022-11-14T13:30:22.444Z,757
2022-11-14T13:31:22.590Z,646
2022-11-14T13:32:22.423Z,505
2022-11-14T13:33:22.404Z,765
2022-11-14T13:34:22.421Z,612
2022-11-14T13:35:22.414Z,618
2022-11-14T13:36:22.594Z,785
2022-11-14T13:37:22.435Z,702
2022-11-14T13:38:22.417Z,710
2022-11-14T13:39:22.383Z,712
2022-11-14T13:40:22.414Z,565
2022-11-14T13:41:24.291Z,715
2022-11-14T13:42:22.388Z,733
2022-11-14T13:43:22.396Z,733
2022-11-14T13:44:22.420Z,586
2022-11-14T13:45:22.388Z,717
2022-11-14T13:46:22.595Z,589
2022-11-14T13:47:22.423Z,754
2022-11-14T13:48:22.389Z,742
2022-11-14T13:49:22.400Z,748
2022-11-14T13:50:22.423Z,574
2022-11-14T13:51:42.100Z,650
2022-11-14T13:52:22.427Z,578
2022-11-14T13:53:22.438Z,580
2022-11-14T13:54:22.392Z,742
2022-11-14T13:55:22.410Z,749
2022-11-14T13:56:22.621Z,923
2022-11-14T13:57:22.429Z,572
2022-11-14T13:58:22.457Z,783
2022-11-14T13:59:22.436Z,577
2022-11-14T14:00:22.432Z,810
2022-11-14T14:01:22.658Z,977
2022-11-14T14:02:22.414Z,534
2022-11-14T14:03:22.425Z,740
2022-11-14T14:04:22.407Z,566
2022-11-14T14:05:22.427Z,780
2022-11-14T14:06:22.601Z,787
2022-11-14T14:07:22.547Z,819
2022-11-14T14:08:22.405Z,641
2022-11-14T14:09:22.453Z,645
2022-11-14T14:10:22.423Z,643
2022-11-14T14:11:22.608Z,857
2022-11-14T14:12:22.434Z,793
2022-11-14T14:13:22.443Z,772
2022-11-14T14:14:22.429Z,599
2022-11-14T14:15:22.463Z,793
2022-11-14T14:16:22.635Z,572
2022-11-14T14:17:22.440Z,640
2022-11-14T14:18:22.425Z,827
2022-11-14T14:19:25.839Z,629
2022-11-14T14:20:22.441Z,798
2022-11-14T14:21:22.612Z,821
2022-11-14T14:22:22.423Z,808
2022-11-14T14:23:22.439Z,508
2022-11-14T14:24:22.446Z,626
2022-11-14T14:25:22.441Z,626
2022-11-14T14:26:22.608Z,800
2022-11-14T14:27:22.447Z,825
2022-11-14T14:28:22.440Z,656
2022-11-14T14:29:22.446Z,863
2022-11-14T14:30:22.491Z,704
2022-11-14T14:31:22.631Z,537
2022-11-14T14:32:22.445Z,702
2022-11-14T14:33:22.430Z,874
2022-11-14T14:34:22.441Z,853
2022-11-14T14:35:22.450Z,671
2022-11-14T14:36:22.615Z,863
2022-11-14T14:37:22.445Z,817
2022-11-14T14:38:22.434Z,853
2022-11-14T14:39:22.441Z,666
2022-11-14T14:40:22.472Z,671
2022-11-14T14:41:22.632Z,671
2022-11-14T14:42:22.440Z,855
2022-11-14T14:43:22.425Z,666
2022-11-14T14:44:22.440Z,668
2022-11-14T14:45:22.445Z,671
2022-11-14T14:46:22.643Z,863
2022-11-14T14:47:22.461Z,694
2022-11-14T14:48:22.448Z,708
2022-11-14T14:49:22.467Z,925
2022-11-14T14:50:22.444Z,902
2022-11-14T14:51:22.646Z,694
2022-11-14T14:52:22.438Z,690
2022-11-14T14:53:22.454Z,772
2022-11-14T14:54:22.432Z,882
2022-11-14T14:55:22.469Z,694
2022-11-14T14:56:22.641Z,882
2022-11-14T14:57:23.449Z,683
2022-11-14T14:58:22.801Z,675
2022-11-14T14:59:22.462Z,844
2022-11-14T15:00:22.411Z,682
2022-11-14T15:01:22.679Z,700
2022-11-14T15:02:22.437Z,717
2022-11-14T15:03:22.436Z,942
2022-11-14T15:04:22.414Z,940
2022-11-14T15:05:22.476Z,732
2022-11-14T15:06:22.649Z,983
2022-11-14T15:07:22.537Z,961
2022-11-14T15:08:22.449Z,732
2022-11-14T15:09:22.443Z,972
2022-11-14T15:10:22.467Z,719
2022-11-14T15:11:22.656Z,925
2022-11-14T15:12:22.423Z,900
2022-11-14T15:13:22.452Z,715
2022-11-14T15:14:22.499Z,891
2022-11-14T15:15:22.463Z,700
2022-11-14T15:16:22.638Z,708
2022-11-14T15:17:22.448Z,857
2022-11-14T15:18:22.430Z,679
2022-11-14T15:19:22.466Z,863
2022-11-14T15:20:22.456Z,857
2022-11-14T15:21:22.633Z,678
2022-11-14T15:22:22.444Z,961
2022-11-14T15:23:22.434Z,678
2022-11-14T15:24:22.459Z,930
2022-11-14T15:25:22.439Z,1009
2022-11-14T15:26:22.659Z,930
2022-11-14T15:27:22.451Z,983
2022-11-14T15:28:22.429Z,791
2022-11-14T15:29:22.454Z,987
2022-11-14T15:30:22.459Z,855
2022-11-14T15:31:22.677Z,1009
2022-11-14T15:32:22.464Z,1047
2022-11-14T15:33:22.486Z,900
2022-11-14T15:34:22.465Z,1047
2022-11-14T15:35:25.259Z,1047
2022-11-14T15:36:22.637Z,1056
2022-11-14T15:37:22.434Z,967
2022-11-14T15:38:42.938Z,768
2022-11-14T15:39:22.477Z,704
2022-11-14T15:40:22.474Z,967
2022-11-14T15:41:22.667Z,804
2022-11-14T15:42:22.474Z,909
2022-11-14T15:43:22.467Z,1204
2022-11-14T15:44:22.473Z,744
2022-11-14T15:45:22.478Z,951
2022-11-14T15:46:22.669Z,877
2022-11-14T15:47:22.477Z,923
2022-11-14T15:48:22.483Z,1068
2022-11-14T15:49:22.476Z,1056
2022-11-14T15:50:22.507Z,905
2022-11-14T15:51:22.680Z,1068
2022-11-14T15:52:22.471Z,1017
2022-11-14T15:53:22.479Z,997
2022-11-14T15:54:22.438Z,815
2022-11-14T15:55:22.462Z,1068
2022-11-14T15:56:22.657Z,935
2022-11-14T15:57:22.436Z,1245
2022-11-14T15:58:28.024Z,1204
2022-11-14T15:59:22.465Z,1001
2022-11-14T16:00:22.474Z,1669
2022-11-14T16:01:22.770Z,1302
2022-11-14T16:02:22.461Z,851
2022-11-14T16:03:22.486Z,1128
2022-11-14T16:04:22.442Z,1065
2022-11-14T16:05:22.485Z,900
2022-11-14T16:06:22.653Z,885
2022-11-14T16:07:22.515Z,1074
2022-11-14T16:08:22.482Z,857
2022-11-14T16:09:22.476Z,1131
2022-11-14T16:10:22.487Z,1131
2022-11-14T16:11:22.654Z,1144
2022-11-14T16:12:22.449Z,967
2022-11-14T16:13:22.481Z,1285
2022-11-14T16:14:22.449Z,1224
2022-11-14T16:15:22.446Z,1224
2022-11-14T16:16:22.656Z,940
2022-11-14T16:17:22.452Z,915
2022-11-14T16:18:22.474Z,1204
2022-11-14T16:19:22.505Z,1238
2022-11-14T16:20:22.487Z,954
2022-11-14T16:21:22.686Z,959
2022-11-14T16:22:22.496Z,1285
2022-11-14T16:23:22.492Z,1266
2022-11-14T16:24:22.463Z,1242
2022-11-14T16:25:22.482Z,885
2022-11-14T16:26:22.663Z,1238
2022-11-14T16:27:22.515Z,964
2022-11-14T16:28:22.498Z,1038
2022-11-14T16:29:22.505Z,1060
2022-11-14T16:30:22.469Z,1041
2022-11-14T16:31:22.658Z,1150
2022-11-14T16:32:22.470Z,1385
2022-11-14T16:33:22.494Z,1220
2022-11-14T16:34:22.475Z,1376
2022-11-14T16:35:22.496Z,1068
2022-11-14T16:36:22.665Z,1019
2022-11-14T16:37:22.488Z,1248
2022-11-14T16:38:22.493Z,1125
2022-11-14T16:39:22.503Z,1041
2022-11-14T16:40:22.490Z,1242
2022-11-14T16:41:22.698Z,981
2022-11-14T16:42:22.486Z,1367
2022-11-14T16:43:22.505Z,1038
2022-11-14T16:44:22.486Z,1397
2022-11-14T16:45:22.500Z,1090
2022-11-14T16:46:22.670Z,1364
2022-11-14T16:47:22.493Z,1198
2022-11-14T16:48:22.504Z,697
2022-11-14T16:49:22.473Z,1360
2022-11-14T16:50:22.468Z,1364
2022-11-14T16:51:46.530Z,1050
2022-11-14T16:52:22.481Z,1364
2022-11-14T16:53:22.462Z,1259
2022-11-14T16:54:22.478Z,1047
2022-11-14T16:55:22.465Z,1352
2022-11-14T16:56:22.677Z,1334
2022-11-14T16:57:22.499Z,1090
2022-11-14T16:58:22.478Z,1093
2022-11-14T16:59:22.499Z,1093
2022-11-14T17:00:22.510Z,1404
2022-11-14T17:01:22.756Z,1062
2022-11-14T17:02:22.572Z,659
2022-11-14T17:03:22.493Z,1349
2022-11-14T17:04:22.519Z,1032
2022-11-14T17:05:22.534Z,1038
2022-11-14T17:06:22.699Z,1014
2022-11-14T17:07:23.062Z,956
2022-11-14T17:08:22.523Z,1270
2022-11-14T17:09:22.500Z,949
2022-11-14T17:10:22.469Z,1288
2022-11-14T17:11:22.701Z,981
2022-11-14T17:12:22.479Z,1385
2022-11-14T17:14:22.503Z,1385
